Time;durP1;ratioP1;P1;durP2;ratioP2;P2;SDS_P1;SDS_P2;PMS_P1;PMS_P2;Temp;Humidity;BMP_temperature;BMP_pressure;BME280_temperature;BME280_humidity;BME280_pressure;Samples;Min_cycle;Max_cycle;Signal;HPM_P1;HPM_P2
2021/07/10 00:01:20;;;;;;;5.78;3.47;;;15.20;99.90;;;;;;21097579;28;20195;-81
2021/07/10 00:11:21;;;;;;;7.82;3.30;;;15.30;99.90;;;;;;21067057;28;20038;-82
2021/07/10 00:21:22;;;;;;;9.07;3.20;;;15.30;99.90;;;;;;21015684;28;20031;-82
2021/07/10 00:31:23;;;;;;;4.83;3.10;;;15.30;99.90;;;;;;21070029;28;20040;-82
2021/07/10 00:41:24;;;;;;;12.47;3.07;;;15.20;99.90;;;;;;21067325;28;20039;-80
2021/07/10 00:51:25;;;;;;;10.03;3.27;;;14.80;99.90;;;;;;21069367;28;20447;-84
2021/07/10 01:01:26;;;;;;;9.30;3.83;;;14.70;99.90;;;;;;21069728;28;20040;-82
2021/07/10 01:11:27;;;;;;;3.97;3.00;;;14.70;99.90;;;;;;21069413;28;20032;-83
2021/07/10 01:21:28;;;;;;;8.30;3.53;;;14.60;99.90;;;;;;21053146;28;20024;-83
2021/07/10 01:31:31;;;;;;;5.13;3.40;;;14.70;99.90;;;;;;21079483;28;20558;-82
2021/07/10 01:41:44;;;;;;;5.18;3.13;;;14.40;99.90;;;;;;21067456;28;20044;-82
2021/07/10 01:51:45;;;;;;;5.20;3.40;;;14.50;99.90;;;;;;21066102;28;20027;-81
2021/07/10 02:01:51;;;;;;;5.63;3.50;;;14.40;99.90;;;;;;21083362;28;20059;-82
2021/07/10 02:11:54;;;;;;;5.55;3.63;;;14.30;99.90;;;;;;21081024;28;20036;-82
2021/07/10 02:21:56;;;;;;;7.10;3.50;;;14.20;99.90;;;;;;21097646;28;20056;-83
2021/07/10 02:31:57;;;;;;;9.77;3.90;;;14.20;99.90;;;;;;21064224;28;20047;-82
2021/07/10 02:41:58;;;;;;;9.40;3.97;;;14.20;99.90;;;;;;21078981;28;20481;-82
2021/07/10 02:51:59;;;;;;;10.00;4.20;;;13.80;99.90;;;;;;21093190;28;20388;-82
2021/07/10 03:02:00;;;;;;;13.03;4.17;;;13.80;99.90;;;;;;21074768;28;20036;-82
2021/07/10 03:12:01;;;;;;;8.43;4.63;;;13.70;99.90;;;;;;21073409;28;20396;-83
2021/07/10 03:22:02;;;;;;;6.30;4.20;;;13.70;99.90;;;;;;21057665;28;20396;-82
2021/07/10 03:32:03;;;;;;;7.03;4.60;;;13.60;99.90;;;;;;21091325;28;20028;-83
2021/07/10 03:42:05;;;;;;;12.37;4.27;;;13.60;99.90;;;;;;21092453;28;20396;-83
2021/07/10 03:52:06;;;;;;;10.10;4.93;;;13.60;99.90;;;;;;21093034;28;20517;-81
2021/07/10 04:02:07;;;;;;;6.90;4.90;;;13.50;99.90;;;;;;21075593;28;20396;-82
2021/07/10 04:12:07;;;;;;;9.43;5.13;;;13.40;99.90;;;;;;21074432;28;20399;-81
2021/07/10 04:22:08;;;;;;;7.90;5.60;;;13.40;99.90;;;;;;21073721;28;20028;-83
2021/07/10 04:32:10;;;;;;;10.87;6.50;;;13.60;99.90;;;;;;21092581;28;20024;-81
2021/07/10 04:42:11;;;;;;;12.00;6.38;;;13.70;99.90;;;;;;21074373;28;20065;-83
2021/07/10 04:52:12;;;;;;;11.40;6.17;;;13.80;99.90;;;;;;21072560;28;20036;-84
2021/07/10 05:02:13;;;;;;;14.33;6.33;;;13.90;99.90;;;;;;21078101;28;20032;-83
2021/07/10 05:12:16;;;;;;;13.30;5.97;;;14.00;99.90;;;;;;21106238;28;20032;-82
2021/07/10 05:22:17;;;;;;;8.48;5.30;;;14.30;99.90;;;;;;21093987;28;20040;-81
2021/07/10 05:32:18;;;;;;;14.13;5.87;;;14.50;99.90;;;;;;21076371;28;20047;-83
2021/07/10 05:42:19;;;;;;;10.10;5.83;;;14.60;99.90;;;;;;21057895;28;20278;-82
2021/07/10 05:52:20;;;;;;;9.90;6.37;;;14.90;99.90;;;;;;21073529;28;20036;-83
2021/07/10 06:02:21;;;;;;;11.80;5.43;;;15.30;99.90;;;;;;21073335;28;20115;-82
2021/07/10 06:12:22;;;;;;;10.57;5.20;;;15.70;99.90;;;;;;21070260;28;20028;-84
2021/07/10 06:22:23;;;;;;;6.27;4.67;;;16.00;99.90;;;;;;21071349;28;20036;-82
2021/07/10 06:32:23;;;;;;;5.20;4.07;;;16.60;99.90;;;;;;21070129;28;20024;-83
2021/07/10 06:42:24;;;;;;;5.97;4.70;;;17.40;99.90;;;;;;21055826;28;20504;-83
2021/07/10 06:52:26;;;;;;;7.40;4.77;;;17.60;99.90;;;;;;21090025;28;20024;-82
2021/07/10 07:02:27;;;;;;;8.35;4.80;;;18.20;99.90;;;;;;21085682;28;20505;-84
2021/07/10 07:12:28;;;;;;;5.40;4.10;;;18.90;99.90;;;;;;21083561;28;20392;-83
2021/07/10 07:22:29;;;;;;;11.17;4.33;;;18.70;99.90;;;;;;21068655;28;20050;-81
2021/07/10 07:32:30;;;;;;;10.63;4.60;;;19.70;99.90;;;;;;21041570;28;20039;-84
2021/07/10 07:42:31;;;;;;;8.23;3.60;;;20.20;99.90;;;;;;21023634;28;20035;-82
2021/07/10 07:52:32;;;;;;;4.60;3.40;;;20.20;99.90;;;;;;21045697;27;20131;-82
2021/07/10 08:02:32;;;;;;;13.40;3.90;;;20.40;99.90;;;;;;21070053;28;20094;-83
2021/07/10 08:12:34;;;;;;;5.10;3.40;;;20.30;99.90;;;;;;21130048;28;20032;-82
2021/07/10 08:22:34;;;;;;;6.57;3.13;;;21.40;99.90;;;;;;21114446;22;20051;-76
2021/07/10 08:32:36;;;;;;;3.67;2.80;;;22.50;99.90;;;;;;21060039;28;20044;-74
2021/07/10 08:42:37;;;;;;;5.82;2.90;;;22.60;99.90;;;;;;21034162;28;20032;-74
2021/07/10 08:52:38;;;;;;;5.15;2.78;;;23.20;99.90;;;;;;21028584;28;20799;-74
2021/07/10 09:02:48;;;;;;;5.50;2.67;;;23.70;99.90;;;;;;20982823;28;20032;-76
2021/07/10 09:12:57;;;;;;;5.30;2.45;;;23.50;99.90;;;;;;20995938;28;20033;-75
2021/07/10 09:22:58;;;;;;;3.00;2.13;;;23.30;99.90;;;;;;21049599;28;20039;-75
2021/07/10 09:33:16;;;;;;;6.80;2.07;;;23.60;99.90;;;;;;21056480;28;20020;-75
2021/07/10 09:43:25;;;;;;;5.22;2.40;;;25.00;99.90;;;;;;21030558;28;20089;-76
2021/07/10 09:53:28;;;;;;;2.35;1.90;;;25.10;99.90;;;;;;21061701;28;20429;-75
2021/07/10 10:03:32;;;;;;;5.05;1.90;;;25.20;99.90;;;;;;21067415;28;20521;-75
2021/07/10 10:13:33;;;;;;;2.75;1.80;;;25.50;99.90;;;;;;21041167;28;20035;-76
2021/07/10 10:23:35;;;;;;;2.85;1.77;;;25.00;99.90;;;;;;21049395;28;20036;-76
2021/07/10 10:33:36;;;;;;;3.42;2.17;;;26.00;99.90;;;;;;21045857;28;20093;-75
2021/07/10 10:43:37;;;;;;;4.20;1.65;;;26.90;99.90;;;;;;21061424;28;20028;-75
2021/07/10 10:53:38;;;;;;;3.95;1.58;;;26.20;99.90;;;;;;21059378;28;20490;-75
2021/07/10 11:03:41;;;;;;;2.00;1.52;;;26.60;99.90;;;;;;21043126;28;20072;-75
2021/07/10 11:13:47;;;;;;;4.68;2.20;;;26.70;99.90;;;;;;21054827;28;20067;-75
2021/07/10 11:23:48;;;;;;;7.60;2.75;;;26.90;99.90;;;;;;21031811;28;20040;-75
2021/07/10 11:34:07;;;;;;;2.78;1.58;;;27.50;99.90;;;;;;21058345;28;20028;-75
2021/07/10 11:44:12;;;;;;;2.30;1.33;;;28.00;99.90;;;;;;21037270;28;20028;-74
2021/07/10 11:54:18;;;;;;;3.70;1.70;;;27.20;99.90;;;;;;21058806;28;20061;-75
2021/07/10 12:04:19;;;;;;;1.95;1.63;;;28.40;99.90;;;;;;21057501;28;20031;-76
2021/07/10 12:14:20;;;;;;;3.92;1.38;;;28.90;99.90;;;;;;21051048;28;20035;-76
2021/07/10 12:24:21;;;;;;;3.95;1.33;;;28.00;99.90;;;;;;21059086;28;20032;-75
2021/07/10 12:34:21;;;;;;;2.10;1.88;;;29.30;99.90;;;;;;21058491;28;20035;-75
2021/07/10 12:44:33;;;;;;;4.22;1.70;;;28.70;99.90;;;;;;21004903;28;20061;-76
2021/07/10 12:54:45;;;;;;;2.47;1.50;;;27.70;99.90;;;;;;21005038;28;20042;-75
2021/07/10 13:04:48;;;;;;;2.95;1.30;;;27.30;99.90;;;;;;21056455;28;20043;-75
2021/07/10 13:15:01;;;;;;;2.92;1.40;;;26.30;99.90;;;;;;21045181;28;20103;-74
2021/07/10 13:25:15;;;;;;;4.20;1.50;;;28.20;99.90;;;;;;21058298;28;20115;-76
2021/07/10 13:35:16;;;;;;;1.77;1.20;;;29.10;99.90;;;;;;21066234;28;20086;-75
2021/07/10 13:45:17;;;;;;;1.38;1.23;;;28.00;99.90;;;;;;21063875;28;20170;-75
2021/07/10 13:55:23;;;;;;;1.75;1.30;;;28.20;99.90;;;;;;21062091;28;20032;-75
2021/07/10 14:05:29;;;;;;;1.90;1.10;;;27.90;99.90;;;;;;21062963;28;20032;-75
2021/07/10 14:15:31;;;;;;;1.98;1.60;;;28.00;99.90;;;;;;21054851;28;20035;-76
2021/07/10 14:25:33;;;;;;;2.13;1.05;;;28.60;99.90;;;;;;21061745;28;20040;-76
2021/07/10 14:35:34;;;;;;;1.80;1.13;;;28.50;99.90;;;;;;21059941;28;20055;-76
2021/07/10 14:45:35;;;;;;;1.45;1.20;;;28.60;99.90;;;;;;21061626;28;20440;-75
2021/07/10 14:55:38;;;;;;;1.83;1.02;;;28.90;99.90;;;;;;21060438;28;20032;-75
2021/07/10 15:05:39;;;;;;;1.77;1.23;;;29.80;99.90;;;;;;21060453;28;20372;-75
2021/07/10 15:15:39;;;;;;;6.63;1.60;;;28.90;99.90;;;;;;21053800;28;20032;-75
2021/07/10 15:25:40;;;;;;;1.92;1.60;;;28.70;99.90;;;;;;21039317;28;20032;-75
2021/07/10 15:35:41;;;;;;;1.73;1.20;;;28.40;99.90;;;;;;21039798;28;20112;-76
2021/07/10 15:45:43;;;;;;;2.58;1.30;;;28.20;99.90;;;;;;21037586;28;20136;-75
2021/07/10 15:55:44;;;;;;;2.35;1.45;;;26.70;99.90;;;;;;21029250;28;20080;-74
2021/07/10 16:05:45;;;;;;;4.65;1.50;;;26.80;99.90;;;;;;20983959;28;20042;-76
2021/07/10 16:15:46;;;;;;;2.20;1.50;;;27.10;99.90;;;;;;21041607;28;20047;-77
2021/07/10 16:25:47;;;;;;;1.38;1.20;;;27.60;99.90;;;;;;21090330;28;20421;-77
2021/07/10 16:35:47;;;;;;;1.60;1.38;;;27.50;99.90;;;;;;21041629;28;20051;-77
2021/07/10 16:45:48;;;;;;;2.78;1.50;;;26.00;99.90;;;;;;21038870;28;20036;-77
2021/07/10 16:55:49;;;;;;;;;;;25.20;99.90;;;;;;21061543;28;20059;-78
2021/07/10 17:05:50;;;;;;;1.27;1.17;;;25.00;99.90;;;;;;21021548;28;20383;-79
2021/07/10 17:15:52;;;;;;;2.78;1.65;;;24.30;99.90;;;;;;20999347;28;20028;-77
2021/07/10 17:25:52;;;;;;;;;;;23.90;99.90;;;;;;21049732;28;20052;-77
2021/07/10 17:35:53;;;;;;;12.80;7.80;;;22.70;99.90;;;;;;21053072;28;20020;-75
2021/07/10 17:45:54;;;;;;;6.00;2.40;;;22.20;99.90;;;;;;21075181;28;20472;-79
2021/07/10 17:55:55;;;;;;;2.30;1.57;;;19.00;99.90;;;;;;21077672;28;20072;-80
2021/07/10 18:05:56;;;;;;;4.60;2.77;;;18.70;99.90;;;;;;21082479;28;20119;-79
2021/07/10 18:15:57;;;;;;;8.93;4.10;;;18.10;99.90;;;;;;21056338;28;20036;-79
2021/07/10 18:25:59;;;;;;;9.23;4.93;;;18.20;99.90;;;;;;21029493;28;20047;-78
2021/07/10 18:35:59;;;;;;;;;;;17.90;99.90;;;;;;21039333;28;20630;-78
2021/07/10 18:46:00;;;;;;;6.40;2.83;;;17.80;99.90;;;;;;21047481;28;20022;-78
2021/07/10 18:56:02;;;;;;;3.33;2.00;;;17.80;99.90;;;;;;21053338;28;20068;-79
2021/07/10 19:06:02;;;;;;;2.87;1.50;;;17.80;99.90;;;;;;21070575;28;20036;-78
2021/07/10 19:16:04;;;;;;;4.43;1.30;;;17.40;99.90;;;;;;21018710;22;20048;-81
2021/07/10 19:26:04;;;;;;;8.33;1.83;;;17.00;99.90;;;;;;21070527;28;20020;-82
2021/07/10 19:36:05;;;;;;;2.73;1.60;;;16.70;99.90;;;;;;21035110;28;20285;-79
2021/07/10 19:46:07;;;;;;;4.33;2.00;;;16.40;99.90;;;;;;21066242;28;20778;-78
2021/07/10 19:56:08;;;;;;;2.90;1.40;;;16.10;99.90;;;;;;21045149;28;20139;-79
2021/07/10 20:06:09;;;;;;;3.57;1.87;;;15.90;99.90;;;;;;21029979;28;20039;-81
2021/07/10 20:16:11;;;;;;;1.23;1.08;;;15.60;99.90;;;;;;21049369;28;20123;-84
2021/07/10 20:26:12;;;;;;;;;;;15.30;99.90;;;;;;21035065;28;20048;-83
2021/07/10 20:36:13;;;;;;;3.57;1.93;;;15.10;99.90;;;;;;21047486;28;19923;-82
2021/07/10 20:46:14;;;;;;;5.07;2.67;;;15.10;99.90;;;;;;21069504;28;20292;-83
2021/07/10 20:56:15;;;;;;;4.70;2.70;;;15.10;99.90;;;;;;21054308;28;20349;-84
2021/07/10 21:06:16;;;;;;;4.87;2.90;;;15.00;99.90;;;;;;21033762;28;20404;-82
2021/07/10 21:16:17;;;;;;;5.03;2.83;;;14.90;99.90;;;;;;21029501;28;20051;-82
2021/07/10 21:26:17;;;;;;;6.47;3.00;;;14.90;99.90;;;;;;21045969;28;20032;-82
2021/07/10 21:36:19;;;;;;;9.37;2.93;;;15.00;99.90;;;;;;21049922;28;20119;-80
2021/07/10 21:46:19;;;;;;;5.43;2.67;;;15.10;99.90;;;;;;21039541;28;20054;-80
2021/07/10 21:56:20;;;;;;;4.37;2.80;;;14.90;99.90;;;;;;21046047;28;20555;-81
2021/07/10 22:06:22;;;;;;;5.67;2.37;;;15.10;99.90;;;;;;21067975;28;20032;-81
2021/07/10 22:16:22;;;;;;;4.97;1.90;;;15.50;99.90;;;;;;21046972;28;20046;-80
2021/07/10 22:26:23;;;;;;;3.87;1.93;;;15.90;99.90;;;;;;21058641;28;20123;-80
2021/07/10 22:36:25;;;;;;;5.73;2.20;;;15.80;99.90;;;;;;21041422;28;20032;-80
2021/07/10 22:46:26;;;;;;;5.43;2.50;;;15.90;99.90;;;;;;21059568;28;20067;-81
2021/07/10 22:56:27;;;;;;;12.07;3.00;;;15.10;99.90;;;;;;21077918;28;20032;-81
2021/07/10 23:06:28;;;;;;;4.20;2.70;;;15.10;99.90;;;;;;21043922;28;20464;-80
2021/07/10 23:16:29;;;;;;;5.00;2.53;;;15.10;99.90;;;;;;20984977;28;20122;-80
2021/07/10 23:26:29;;;;;;;7.80;3.07;;;15.20;99.90;;;;;;20991643;28;20036;-80
2021/07/10 23:36:31;;;;;;;3.87;2.57;;;15.20;99.90;;;;;;20992455;28;20032;-81
2021/07/10 23:46:32;;;;;;;;;;;15.30;99.90;;;;;;20993250;28;20043;-80
2021/07/10 23:56:33;;;;;;;7.75;3.90;;;15.20;99.90;;;;;;20981235;28;19912;-81
